Time;durP1;ratioP1;P1;durP2;ratioP2;P2;SDS_P1;SDS_P2;PMS_P1;PMS_P2;Temp;Humidity;BMP_temperature;BMP_pressure;BME280_temperature;BME280_humidity;BME280_pressure;Samples;Min_cycle;Max_cycle;Signal;HPM_P1;HPM_P2
2021/09/16 00:02:22;;;;;;;16.40;15.10;;;;;;;20.99;74.14;99068.63;5018664;28;20229;-91
2021/09/16 00:04:54;;;;;;;17.60;16.10;;;;;;;20.94;74.21;99065.16;5034725;28;20288;-90
2021/09/16 00:07:27;;;;;;;16.87;15.43;;;;;;;20.90;74.16;99042.38;5018028;28;20236;-86
2021/09/16 00:09:56;;;;;;;17.37;15.87;;;;;;;20.93;74.31;99064.34;5034682;28;20234;-84
2021/09/16 00:12:27;;;;;;;17.80;16.20;;;;;;;20.89;74.52;99055.19;5033693;28;20706;-90
2021/09/16 00:14:57;;;;;;;17.47;15.73;;;;;;;20.81;74.78;99053.13;5018694;28;20525;-86
2021/09/16 00:17:26;;;;;;;16.77;15.37;;;;;;;20.80;74.80;99058.91;5034388;28;20241;-83
2021/09/16 00:19:54;;;;;;;17.87;16.07;;;;;;;20.80;75.09;99061.63;5034503;28;20235;-90
2021/09/16 00:22:26;;;;;;;16.90;15.33;;;;;;;20.76;75.25;99069.59;5017592;28;20645;-89
2021/09/16 00:24:58;;;;;;;17.17;15.67;;;;;;;20.72;75.59;99065.81;5034246;28;20255;-90
2021/09/16 00:27:30;;;;;;;17.20;15.60;;;;;;;20.77;75.57;99064.91;5002680;28;20240;-90
2021/09/16 00:30:02;;;;;;;16.90;15.30;;;;;;;20.63;76.28;99073.06;5018216;28;20257;-84
2021/09/16 00:32:39;;;;;;;16.83;15.33;;;;;;;20.49;76.82;99061.31;5034112;28;20226;-89
2021/09/16 00:35:11;;;;;;;17.03;15.43;;;;;;;20.54;76.66;99074.84;5018602;28;20230;-83
2021/09/16 00:37:41;;;;;;;16.73;15.33;;;;;;;20.48;76.48;99068.69;5017513;28;20244;-88
2021/09/16 00:40:14;;;;;;;17.80;16.30;;;;;;;20.53;76.62;99075.97;5017762;28;20245;-87
2021/09/16 00:42:45;;;;;;;17.37;15.70;;;;;;;20.51;76.69;99072.72;5018450;28;20229;-85
2021/09/16 00:45:14;;;;;;;16.63;15.10;;;;;;;20.46;76.95;99070.91;5018051;28;20233;-86
2021/09/16 00:47:49;;;;;;;17.03;15.63;;;;;;;20.47;76.98;99077.97;5033685;28;20235;-84
2021/09/16 00:50:25;;;;;;;17.57;16.07;;;;;;;20.38;77.27;99076.22;5033341;28;20240;-91
2021/09/16 00:52:58;;;;;;;16.57;14.97;;;;;;;20.33;77.49;99074.41;5018133;28;20234;-85
2021/09/16 00:55:28;;;;;;;16.23;14.83;;;;;;;20.32;77.65;99082.84;5017930;28;20263;-83
2021/09/16 00:58:03;;;;;;;16.70;15.03;;;;;;;20.27;78.06;99089.13;5003244;28;20230;-87
2021/09/16 01:00:36;;;;;;;16.60;15.20;;;;;;;20.22;78.09;99087.31;5022193;28;20232;-87
2021/09/16 01:03:07;;;;;;;17.23;15.73;;;;;;;20.11;78.29;99068.72;5021649;28;20231;-83
2021/09/16 01:05:40;;;;;;;16.60;15.07;;;;;;;20.15;78.12;99084.16;5021469;28;20639;-87
2021/09/16 01:08:13;;;;;;;17.00;15.57;;;;;;;20.13;78.41;99080.09;5037595;28;20691;-88
2021/09/16 01:10:52;;;;;;;16.60;15.23;;;;;;;20.09;78.65;99073.66;5037807;28;20291;-89
2021/09/16 01:13:26;;;;;;;17.63;15.90;;;;;;;20.10;78.52;99091.59;5021618;28;20231;-87
2021/09/16 01:16:01;;;;;;;16.83;15.30;;;;;;;20.04;78.63;99081.88;5022212;28;20312;-92
2021/09/16 01:18:43;;;;;;;17.27;15.73;;;;;;;20.08;78.18;99085.63;5022287;28;20226;-82
2021/09/16 01:21:13;;;;;;;16.97;15.50;;;;;;;20.06;78.05;99077.75;5021866;28;20281;-86
2021/09/16 01:23:49;;;;;;;16.97;15.63;;;;;;;20.07;78.05;99084.81;5022326;28;20229;-84
2021/09/16 01:26:20;;;;;;;17.67;16.07;;;;;;;20.11;77.80;99090.50;5037347;28;20229;-83
2021/09/16 01:28:50;;;;;;;16.70;15.17;;;;;;;20.11;77.83;99085.06;5021274;28;20240;-87
2021/09/16 01:31:51;;;;;;;16.50;15.00;;;;;;;20.19;77.36;99089.81;5021914;28;20534;-82
2021/09/16 01:34:26;;;;;;;16.33;14.87;;;;;;;20.22;76.61;99089.22;5021457;28;20235;-84
2021/09/16 01:36:58;;;;;;;16.60;15.20;;;;;;;20.31;76.87;99087.47;5021321;28;20228;-83
2021/09/16 01:39:28;;;;;;;17.67;16.00;;;;;;;20.35;76.44;99077.59;5005958;28;20243;-90
2021/09/16 01:41:58;;;;;;;17.27;15.73;;;;;;;20.34;76.27;99084.19;5037435;28;20236;-84
2021/09/16 01:44:29;;;;;;;17.37;15.97;;;;;;;20.38;76.22;99087.91;5037015;28;20233;-94
2021/09/16 01:47:05;;;;;;;15.97;14.60;;;;;;;20.43;76.22;99096.00;5005838;28;20277;-88
2021/09/16 01:49:40;;;;;;;16.40;14.97;;;;;;;20.40;76.19;99080.25;5022012;28;20225;-91
2021/09/16 01:52:16;;;;;;;16.73;15.27;;;;;;;20.45;75.72;99074.72;5036700;28;20672;-89
2021/09/16 01:54:48;;;;;;;16.67;15.23;;;;;;;20.40;75.85;99069.38;5038166;28;20226;-90
2021/09/16 01:57:18;;;;;;;15.80;14.40;;;;;;;20.41;75.82;99068.28;5004735;28;20230;-83
2021/09/16 02:00:01;;;;;;;16.43;15.03;;;;;;;20.38;76.42;99078.94;5037255;28;20517;-87
2021/09/16 02:02:39;;;;;;;17.30;15.63;;;;;;;20.30;76.42;99082.28;5036638;28;20302;-86
2021/09/16 02:05:12;;;;;;;16.07;14.67;;;;;;;20.25;76.48;99074.22;5037222;28;20566;-84
2021/09/16 02:07:46;;;;;;;17.00;15.47;;;;;;;20.21;76.90;99076.72;5021444;28;20229;-85
2021/09/16 02:10:21;;;;;;;17.40;15.73;;;;;;;20.22;76.61;99075.63;5036257;28;20638;-85
2021/09/16 02:12:53;;;;;;;17.33;15.67;;;;;;;20.20;76.76;99080.56;5036574;28;20233;-90
2021/09/16 02:15:26;;;;;;;17.67;16.07;;;;;;;20.20;76.69;99083.28;5020762;28;20758;-84
2021/09/16 02:17:58;;;;;;;18.00;16.50;;;;;;;20.16;76.93;99084.94;5036930;28;20237;-93
2021/09/16 02:20:36;;;;;;;17.90;16.27;;;;;;;20.15;76.92;99081.44;5037421;28;20530;-91
2021/09/16 02:23:12;;;;;;;18.97;17.23;;;;;;;20.26;76.98;99090.22;5036897;28;20228;-94
2021/09/16 02:25:42;;;;;;;19.17;17.50;;;;;;;20.23;76.63;99072.59;5036467;28;20235;-92
2021/09/16 02:28:19;;;;;;;18.90;17.30;;;;;;;20.27;76.94;99070.09;5035915;28;20240;-85
2021/09/16 02:30:49;;;;;;;18.17;16.43;;;;;;;20.25;76.68;99068.78;5037358;28;20231;-88
2021/09/16 02:33:21;;;;;;;18.53;16.83;;;;;;;20.31;76.65;99078.50;5020097;28;20532;-91
2021/09/16 02:35:57;;;;;;;18.50;16.80;;;;;;;20.39;76.32;99077.84;5020718;28;20756;-91
2021/09/16 02:38:31;;;;;;;18.57;16.97;;;;;;;20.41;76.34;99078.34;5020521;28;20652;-83
2021/09/16 02:41:04;;;;;;;19.03;17.43;;;;;;;20.55;75.71;99068.31;5020217;28;20312;-83
2021/09/16 02:43:44;;;;;;;18.67;16.97;;;;;;;20.67;75.43;99084.97;5036119;28;20235;-88
2021/09/16 02:46:19;;;;;;;18.50;16.93;;;;;;;20.76;74.71;99066.06;5020364;28;20238;-90
2021/09/16 02:48:51;;;;;;;18.93;17.30;;;;;;;20.85;74.31;99069.69;5020147;28;20532;-86
2021/09/16 02:51:28;;;;;;;19.70;17.80;;;;;;;21.03;73.75;99074.25;5036293;28;20668;-82
2021/09/16 02:53:57;;;;;;;18.93;17.30;;;;;;;21.36;72.17;99084.00;5019687;28;20227;-82
2021/09/16 02:56:34;;;;;;;18.27;16.57;;;;;;;21.59;71.27;99079.44;5035958;28;20528;-85
2021/09/16 02:59:08;;;;;;;18.73;16.37;;;;;;;21.63;70.97;99079.63;5020435;28;20575;-88
2021/09/16 03:01:39;;;;;;;16.83;15.40;;;;;;;21.80;70.50;99083.31;5020331;28;20342;-88
2021/09/16 03:04:12;;;;;;;16.57;14.97;;;;;;;21.85;69.85;99085.13;5036282;28;20295;-88
2021/09/16 03:06:50;;;;;;;17.13;15.73;;;;;;;21.87;69.69;99085.63;5036024;28;20233;-82
2021/09/16 03:09:25;;;;;;;17.33;15.47;;;;;;;21.90;69.45;99085.00;5035857;28;20640;-90
2021/09/16 03:11:57;;;;;;;15.77;14.13;;;;;;;21.88;69.70;99076.34;5019718;28;20232;-82
2021/09/16 03:14:35;;;;;;;16.33;14.83;;;;;;;21.86;69.90;99076.66;5036442;28;20538;-82
2021/09/16 03:17:09;;;;;;;15.73;14.43;;;;;;;21.89;69.69;99075.22;5035536;28;20722;-90
2021/09/16 03:19:43;;;;;;;15.70;14.43;;;;;;;21.86;69.72;99071.19;5035508;28;20227;-84
2021/09/16 03:22:13;;;;;;;15.83;14.33;;;;;;;21.82;69.69;99077.56;5018100;28;20264;-92
2021/09/16 03:24:57;;;;;;;15.05;13.60;;;;;;;21.90;69.24;99088.56;5020660;28;20236;-82
2021/09/16 03:27:30;;;;;;;14.10;12.90;;;;;;;21.86;69.16;99075.84;5018912;28;20248;-82
2021/09/16 03:30:03;;;;;;;14.27;13.13;;;;;;;21.92;69.08;99080.88;5019655;28;20321;-84
2021/09/16 03:32:40;;;;;;;13.73;12.53;;;;;;;21.84;68.95;99092.50;5035097;28;20276;-85
2021/09/16 03:35:12;;;;;;;13.80;12.50;;;;;;;21.88;68.72;99085.31;5019090;28;20233;-83
2021/09/16 03:37:49;;;;;;;13.27;12.13;;;;;;;21.89;68.70;99097.84;5020226;28;20228;-84
2021/09/16 03:40:26;;;;;;;14.13;12.93;;;;;;;21.92;68.52;99097.25;5035071;28;20240;-93
2021/09/16 03:42:59;;;;;;;13.20;12.00;;;;;;;21.86;68.32;99093.00;5003293;28;20583;-91
2021/09/16 03:45:39;;;;;;;13.10;11.90;;;;;;;21.88;68.16;99093.50;5035140;28;20639;-83
2021/09/16 03:48:11;;;;;;;12.83;11.77;;;;;;;22.02;67.76;99095.44;5034469;28;20283;-82
2021/09/16 03:50:50;;;;;;;12.13;10.93;;;;;;;21.98;67.97;99088.97;5020270;28;20343;-81
2021/09/16 03:53:24;;;;;;;11.87;10.70;;;;;;;21.93;67.70;99087.97;5034846;28;20554;-85
2021/09/16 03:55:58;;;;;;;12.43;11.23;;;;;;;22.01;67.56;99097.34;5018993;28;20257;-86
2021/09/16 03:58:33;;;;;;;13.10;11.80;;;;;;;21.87;67.58;99083.72;5034342;28;20253;-86
2021/09/16 04:01:02;;;;;;;12.35;11.20;;;;;;;21.92;67.49;99091.78;5034878;28;20234;-94
2021/09/16 04:03:35;;;;;;;12.43;11.23;;;;;;;21.90;67.82;99099.47;5018231;28;20238;-84
2021/09/16 04:06:12;;;;;;;12.70;11.70;;;;;;;21.97;66.92;99090.09;5035100;28;20224;-92
2021/09/16 04:08:43;;;;;;;12.17;11.07;;;;;;;22.00;66.67;99087.56;5019019;28;20235;-91
2021/09/16 04:11:23;;;;;;;11.67;10.67;;;;;;;21.97;67.01;99095.56;5003751;28;20232;-85
2021/09/16 04:13:52;;;;;;;11.77;10.80;;;;;;;22.01;67.28;99105.53;5035504;28;20233;-91
2021/09/16 04:16:28;;;;;;;12.10;11.07;;;;;;;21.88;67.26;99090.00;5002996;28;20233;-90
2021/09/16 04:19:02;;;;;;;11.43;10.43;;;;;;;21.90;67.12;99102.19;5018978;28;20691;-90
2021/09/16 04:21:38;;;;;;;11.67;10.43;;;;;;;21.88;66.92;99101.69;5035346;28;20314;-83
2021/09/16 04:24:14;;;;;;;11.18;10.20;;;;;;;21.94;66.47;99103.22;5034448;28;20307;-87
2021/09/16 04:26:48;;;;;;;10.98;9.98;;;;;;;21.93;66.34;99098.88;5002424;28;20240;-83
2021/09/16 04:29:26;;;;;;;10.50;9.50;;;;;;;22.03;65.25;99099.75;5018807;28;20232;-82
2021/09/16 04:31:58;;;;;;;9.63;8.83;;;;;;;22.13;64.67;99094.06;5018232;28;20236;-84
2021/09/16 04:34:33;;;;;;;10.83;8.80;;;;;;;22.12;64.56;99106.09;5033906;28;20273;-82
2021/09/16 04:37:06;;;;;;;9.38;8.57;;;;;;;22.10;64.85;99108.34;5018528;28;20256;-82
2021/09/16 04:39:43;;;;;;;9.13;8.33;;;;;;;22.21;63.92;99113.25;5018284;28;20259;-84
2021/09/16 04:42:16;;;;;;;9.83;8.20;;;;;;;22.16;64.16;99112.56;5017909;28;20233;-82
2021/09/16 04:44:52;;;;;;;9.23;8.47;;;;;;;22.19;64.04;99126.41;5034051;28;20230;-86
2021/09/16 04:47:26;;;;;;;9.50;8.57;;;;;;;22.20;63.67;99119.03;5034197;28;20242;-89
2021/09/16 04:49:57;;;;;;;8.37;7.67;;;;;;;22.13;63.76;99127.63;5017537;28;20232;-92
2021/09/16 04:52:28;;;;;;;9.30;8.33;;;;;;;22.25;63.48;99129.81;5033695;28;20229;-89
2021/09/16 04:55:01;;;;;;;8.27;7.53;;;;;;;22.27;63.43;99135.75;5017891;28;20331;-85
2021/09/16 04:57:32;;;;;;;8.60;7.70;;;;;;;22.30;63.44;99135.16;5034041;28;20249;-87
2021/09/16 05:00:07;;;;;;;8.55;7.63;;;;;;;22.40;63.15;99140.38;5033134;28;20236;-94
2021/09/16 05:02:38;;;;;;;8.00;7.30;;;;;;;22.50;62.94;99152.97;5034017;28;20224;-84
2021/09/16 05:05:09;;;;;;;8.33;7.10;;;;;;;22.47;62.58;99146.22;5033829;28;20240;-82
2021/09/16 05:07:39;;;;;;;7.73;6.97;;;;;;;22.55;61.94;99140.00;5033921;28;20304;-84
2021/09/16 05:10:08;;;;;;;8.07;7.37;;;;;;;22.64;61.76;99149.06;5033453;28;20233;-92
2021/09/16 05:12:39;;;;;;;7.53;6.83;;;;;;;22.57;61.81;99148.72;5017852;28;20233;-87
2021/09/16 05:15:13;;;;;;;8.97;7.50;;;;;;;22.64;61.83;99157.25;5034518;28;20233;-87
2021/09/16 05:17:49;;;;;;;8.67;7.80;;;;;;;22.64;61.99;99142.78;5033807;28;20760;-83
2021/09/16 05:20:25;;;;;;;8.03;7.23;;;;;;;22.62;61.81;99131.41;5033293;28;20230;-86
2021/09/16 05:22:56;;;;;;;8.38;7.60;;;;;;;22.73;62.22;99154.63;5033564;28;20226;-84
2021/09/16 05:25:32;;;;;;;8.70;7.90;;;;;;;22.67;62.66;99153.94;5018446;28;20578;-92
2021/09/16 05:28:06;;;;;;;8.25;7.32;;;;;;;22.62;62.95;99162.25;5017891;28;20244;-87
2021/09/16 05:30:42;;;;;;;8.35;7.60;;;;;;;22.66;63.19;99182.34;5002849;28;20322;-85
2021/09/16 05:33:11;;;;;;;9.00;8.10;;;;;;;22.54;63.45;99162.16;5033689;28;20268;-84
2021/09/16 05:35:43;;;;;;;8.27;7.47;;;;;;;22.53;63.61;99171.47;5017899;28;20249;-86
2021/09/16 05:38:15;;;;;;;9.70;8.20;;;;;;;22.53;63.81;99169.56;5017243;28;20359;-87
2021/09/16 05:40:50;;;;;;;7.70;6.80;;;;;;;22.55;63.11;99169.22;5034499;28;20230;-86
2021/09/16 05:43:23;;;;;;;6.90;6.20;;;;;;;22.52;62.98;99188.97;5017763;28;20320;-89
2021/09/16 05:45:59;;;;;;;6.22;5.72;;;;;;;22.49;62.20;99176.72;5037683;28;20368;-84
2021/09/16 05:48:33;;;;;;;6.50;5.90;;;;;;;22.53;62.04;99185.13;5021214;28;20534;-83
2021/09/16 05:51:11;;;;;;;6.43;5.82;;;;;;;22.59;61.96;99181.94;5037395;28;20232;-92
2021/09/16 05:53:41;;;;;;;6.70;5.85;;;;;;;22.63;62.13;99172.03;5037207;28;20230;-90
2021/09/16 05:56:10;;;;;;;6.07;5.40;;;;;;;22.75;61.52;99179.69;5036941;28;20226;-86
2021/09/16 05:58:44;;;;;;;7.03;5.57;;;;;;;22.80;61.84;99194.06;5020857;28;20234;-85
2021/09/16 06:01:20;;;;;;;8.90;5.80;;;;;;;22.89;61.59;99194.09;5037042;28;20320;-86
2021/09/16 06:03:50;;;;;;;6.55;6.05;;;;;;;22.93;61.25;99175.97;5036937;28;20271;-89
2021/09/16 06:06:24;;;;;;;6.32;5.10;;;;;;;23.07;60.76;99179.44;5020750;28;20288;-86
2021/09/16 06:08:56;;;;;;;7.78;5.45;;;;;;;23.31;60.18;99183.75;5037775;28;20743;-84
2021/09/16 06:11:30;;;;;;;8.18;5.80;;;;;;;23.43;59.13;99175.75;5022091;28;20230;-86
2021/09/16 06:14:07;;;;;;;6.45;5.82;;;;;;;23.62;59.86;99196.31;5021538;28;20645;-90
2021/09/16 06:16:42;;;;;;;7.40;5.80;;;;;;;23.78;59.74;99191.22;5021388;28;20264;-89
2021/09/16 06:19:13;;;;;;;6.40;5.80;;;;;;;23.94;58.83;99183.38;5036809;28;20653;-91
2021/09/16 06:21:43;;;;;;;6.07;5.53;;;;;;;24.11;58.43;99184.22;5035370;28;20251;-88
2021/09/16 06:24:11;;;;;;;6.40;5.80;;;;;;;24.28;58.18;99191.69;5019915;28;20226;-85
2021/09/16 06:26:43;;;;;;;6.03;5.47;;;;;;;24.29;58.75;99181.53;5036577;28;20222;-89
2021/09/16 06:29:14;;;;;;;8.32;5.55;;;;;;;24.46;58.41;99198.78;5019751;28;20223;-89
2021/09/16 06:31:43;;;;;;;6.07;5.13;;;;;;;24.53;57.82;99193.66;5035820;28;20259;-85
2021/09/16 06:34:14;;;;;;;7.30;5.60;;;;;;;24.67;57.05;99209.13;5035633;28;20307;-85
2021/09/16 06:36:42;;;;;;;6.93;5.50;;;;;;;24.64;57.48;99205.06;5019720;28;20625;-86
2021/09/16 06:39:09;;;;;;;10.18;6.18;;;;;;;24.70;57.92;99208.47;5019445;28;20228;-85
2021/09/16 06:41:36;;;;;;;10.35;6.88;;;;;;;24.74;58.19;99203.94;5019717;28;20235;-85
2021/09/16 06:44:03;;;;;;;7.43;6.68;;;;;;;24.75;58.55;99208.31;5019122;28;20237;-85
2021/09/16 06:46:33;;;;;;;12.63;8.02;;;;;;;24.84;58.91;99195.41;5036066;28;20222;-86
2021/09/16 06:49:06;;;;;;;8.40;7.55;;;;;;;24.72;58.79;99196.06;5019959;28;20253;-85
2021/09/16 06:51:36;;;;;;;9.48;7.28;;;;;;;24.44;59.58;99194.78;5003908;28;20234;-86
2021/09/16 06:54:04;;;;;;;8.35;7.57;;;;;;;24.20;59.68;99184.28;5019004;28;20634;-86
2021/09/16 06:56:34;;;;;;;8.10;7.40;;;;;;;24.26;60.42;99188.47;5034516;28;20634;-85
2021/09/16 06:59:02;;;;;;;8.90;7.00;;;;;;;24.24;60.75;99193.47;5015453;28;20643;-84
2021/09/16 07:01:29;;;;;;;8.50;7.25;;;;;;;24.41;60.03;99196.22;5018162;28;20262;-85
2021/09/16 07:03:57;;;;;;;8.05;7.10;;;;;;;24.46;59.42;99189.75;5018613;28;20218;-85
2021/09/16 07:06:40;;;;;;;7.72;6.65;;;;;;;24.39;59.58;99194.94;5020449;28;20609;-85
2021/09/16 07:09:07;;;;;;;9.32;6.55;;;;;;;24.46;59.63;99179.63;5018662;28;20233;-85
2021/09/16 07:11:33;;;;;;;6.70;6.00;;;;;;;24.47;58.96;99196.84;5035116;28;20225;-86
2021/09/16 07:14:01;;;;;;;7.75;6.13;;;;;;;24.46;58.31;99217.97;5018604;28;20234;-84
2021/09/16 07:16:28;;;;;;;7.90;6.10;;;;;;;24.81;58.03;99207.03;5034452;28;20244;-85
2021/09/16 07:18:54;;;;;;;8.45;6.03;;;;;;;24.76;57.19;99190.75;5002828;28;20241;-85
2021/09/16 07:21:21;;;;;;;6.80;5.60;;;;;;;24.99;56.45;99187.53;5034876;28;20264;-85
2021/09/16 07:23:49;;;;;;;10.43;5.82;;;;;;;25.13;56.34;99190.06;5034715;28;20250;-86
2021/09/16 07:26:25;;;;;;;8.20;5.10;;;;;;;25.17;56.74;99192.97;5019243;28;20637;-84
2021/09/16 07:28:59;;;;;;;9.48;5.00;;;;;;;25.44;55.98;99182.41;5019130;28;20229;-86
2021/09/16 07:31:27;;;;;;;16.25;5.60;;;;;;;25.31;55.04;99188.91;5018382;28;20229;-85
2021/09/16 07:33:56;;;;;;;14.18;4.88;;;;;;;25.51;54.00;99192.06;5034567;28;20779;-86
2021/09/16 07:36:23;;;;;;;6.68;4.28;;;;;;;25.55;52.96;99169.16;5017909;28;20231;-86
2021/09/16 07:38:50;;;;;;;7.07;4.70;;;;;;;25.69;53.06;99194.44;4999725;28;20331;-86
2021/09/16 07:41:18;;;;;;;6.55;4.60;;;;;;;25.77;52.71;99195.53;5014887;28;20257;-85
2021/09/16 07:43:46;;;;;;;7.82;4.90;;;;;;;25.91;52.03;99214.50;5014811;28;20237;-86
2021/09/16 07:46:13;;;;;;;5.03;4.18;;;;;;;26.03;52.23;99201.69;4998395;28;20261;-85
2021/09/16 07:48:40;;;;;;;8.40;4.40;;;;;;;26.17;51.37;99206.94;4998543;28;20632;-85
2021/09/16 07:51:10;;;;;;;6.80;4.35;;;;;;;26.18;50.96;99198.34;5014580;28;20324;-86
2021/09/16 07:53:37;;;;;;;4.70;4.25;;;;;;;26.10;51.43;99201.97;4998692;28;20241;-86
2021/09/16 07:56:04;;;;;;;4.88;4.38;;;;;;;26.09;50.79;99194.06;4998119;28;20567;-86
2021/09/16 07:58:31;;;;;;;5.47;4.43;;;;;;;26.43;50.48;99182.88;5014459;28;20238;-85
2021/09/16 08:00:58;;;;;;;5.80;4.55;;;;;;;26.61;49.61;99175.28;5030505;28;20233;-86
2021/09/16 08:03:25;;;;;;;4.50;4.10;;;;;;;26.61;50.34;99178.03;5017730;28;20995;-85
2021/09/16 08:05:52;;;;;;;5.13;4.57;;;;;;;26.66;50.25;99177.84;5017926;28;20264;-85
2021/09/16 08:08:20;;;;;;;5.18;4.32;;;;;;;26.85;49.03;99196.59;5016502;28;20225;-85
2021/09/16 08:10:47;;;;;;;6.07;4.55;;;;;;;26.78;49.58;99201.84;5001643;28;20240;-86
2021/09/16 08:13:15;;;;;;;6.95;5.07;;;;;;;26.91;48.91;99211.78;5033756;28;20271;-86
2021/09/16 08:15:42;;;;;;;5.75;4.47;;;;;;;26.79;49.07;99200.66;5017344;28;20233;-86
2021/09/16 08:18:09;;;;;;;6.20;4.60;;;;;;;27.02;48.75;99201.94;5017339;28;20230;-85
2021/09/16 08:20:43;;;;;;;7.45;4.38;;;;;;;27.21;48.70;99204.19;5034307;28;20552;-85
2021/09/16 08:23:10;;;;;;;5.72;4.50;;;;;;;27.51;48.39;99194.66;5034043;28;20243;-85
2021/09/16 08:25:37;;;;;;;7.28;5.35;;;;;;;27.68;47.81;99202.69;5034020;28;20227;-85
2021/09/16 08:28:06;;;;;;;5.35;4.20;;;;;;;27.78;46.81;99199.50;5016613;28;20233;-85
2021/09/16 08:30:37;;;;;;;5.03;4.30;;;;;;;27.93;45.68;99220.03;5033823;28;20230;-85
2021/09/16 08:33:08;;;;;;;4.88;4.35;;;;;;;28.27;44.93;99211.34;5016890;28;20740;-85
2021/09/16 08:35:40;;;;;;;5.68;4.57;;;;;;;28.33;44.75;99204.41;5033732;28;20226;-85
2021/09/16 08:38:10;;;;;;;5.22;4.72;;;;;;;28.52;44.05;99203.81;5031639;28;20240;-85
2021/09/16 08:40:40;;;;;;;5.00;4.60;;;;;;;28.78;44.52;99201.47;5017219;28;20645;-85
2021/09/16 08:43:13;;;;;;;5.47;4.43;;;;;;;28.73;44.56;99206.44;5017908;28;20706;-85
2021/09/16 08:45:42;;;;;;;4.90;4.50;;;;;;;29.07;43.94;99205.03;5017528;28;20222;-85
2021/09/16 08:48:12;;;;;;;5.55;4.60;;;;;;;28.75;43.89;99198.59;5016730;28;20330;-85
2021/09/16 08:50:42;;;;;;;6.72;4.68;;;;;;;28.86;43.94;99191.44;5033450;28;20705;-84
2021/09/16 08:53:17;;;;;;;6.75;4.07;;;;;;;28.59;44.21;99184.72;5033566;28;20222;-85
2021/09/16 08:55:52;;;;;;;5.78;4.47;;;;;;;29.06;43.97;99187.69;5018349;28;20218;-85
2021/09/16 08:58:26;;;;;;;5.55;4.80;;;;;;;28.91;44.97;99190.38;5016901;28;20229;-85
2021/09/16 09:00:56;;;;;;;6.35;4.72;;;;;;;29.04;44.45;99189.16;5033391;28;20676;-86
2021/09/16 09:03:27;;;;;;;5.50;5.00;;;;;;;28.71;44.20;99181.97;5017182;28;20562;-85
2021/09/16 09:05:58;;;;;;;4.93;4.40;;;;;;;28.77;44.35;99175.06;5031822;28;20549;-84
2021/09/16 09:08:27;;;;;;;5.50;4.60;;;;;;;28.59;46.02;99178.41;5031288;28;20250;-85
2021/09/16 09:10:59;;;;;;;4.90;4.50;;;;;;;28.66;44.09;99164.81;5015206;28;20242;-86
2021/09/16 09:13:28;;;;;;;5.63;4.63;;;;;;;29.12;43.25;99175.22;5027253;28;20505;-85
2021/09/16 09:16:07;;;;;;;4.97;4.53;;;;;;;29.31;42.29;99167.09;5032755;28;20230;-86
2021/09/16 09:18:48;;;;;;;6.00;4.25;;;;;;;29.65;41.51;99167.53;5030558;28;20236;-85
2021/09/16 09:21:19;;;;;;;4.15;3.72;;;;;;;29.77;40.48;99164.66;5019485;28;20233;-86
2021/09/16 09:23:54;;;;;;;4.60;4.20;;;;;;;29.87;41.15;99157.81;5034357;28;20237;-84
2021/09/16 09:26:34;;;;;;;3.90;3.60;;;;;;;29.91;39.17;99156.75;5034473;28;20768;-85
2021/09/16 09:29:08;;;;;;;4.32;3.65;;;;;;;29.88;39.17;99151.97;5003096;28;20232;-85
2021/09/16 09:32:04;;;;;;;4.05;3.35;;;;;;;30.02;40.08;99146.75;5035303;28;20257;-85
2021/09/16 09:34:39;;;;;;;3.60;3.30;;;;;;;30.13;39.58;99149.78;5019208;28;20227;-85
2021/09/16 09:37:10;;;;;;;4.30;3.70;;;;;;;30.04;40.39;99160.22;5018872;28;20218;-85
2021/09/16 09:39:43;;;;;;;8.02;4.00;;;;;;;29.87;40.50;99157.81;5034773;28;20535;-86
2021/09/16 09:42:16;;;;;;;4.00;3.42;;;;;;;29.77;40.49;99155.63;5018788;28;20517;-87
2021/09/16 09:44:47;;;;;;;5.05;3.35;;;;;;;29.44;39.98;99145.75;5035356;28;20272;-85
2021/09/16 09:47:47;;;;;;;4.40;3.33;;;;;;;29.50;39.80;99149.81;5035025;28;20590;-85
2021/09/16 09:50:23;;;;;;;4.25;2.97;;;;;;;29.37;40.51;99147.50;5017953;28;20256;-84
2021/09/16 09:52:53;;;;;;;3.60;3.30;;;;;;;29.57;41.28;99155.53;5034856;28;20705;-87
2021/09/16 09:55:24;;;;;;;5.22;3.08;;;;;;;29.48;39.98;99148.59;5034782;28;20225;-85
2021/09/16 09:58:04;;;;;;;2.60;2.40;;;;;;;29.26;40.18;99150.75;5019073;28;20230;-85
2021/09/16 10:00:33;;;;;;;6.03;2.50;;;;;;;28.84;40.90;99155.94;5019955;28;20598;-86
2021/09/16 10:03:03;;;;;;;2.75;1.92;;;;;;;28.70;41.18;99149.19;5020453;28;20525;-86
2021/09/16 10:05:36;;;;;;;2.67;2.10;;;;;;;28.44;40.55;99150.44;5020077;28;20218;-85
2021/09/16 10:08:10;;;;;;;3.13;2.38;;;;;;;28.84;40.71;99157.88;5019707;28;20309;-85
2021/09/16 10:10:43;;;;;;;2.85;2.22;;;;;;;28.92;41.02;99150.63;5036439;28;20692;-85
2021/09/16 10:13:19;;;;;;;4.13;2.30;;;;;;;28.98;40.54;99152.75;5036116;28;20234;-85
2021/09/16 10:15:53;;;;;;;3.85;2.33;;;;;;;29.10;40.36;99158.22;5021037;28;20229;-85
2021/09/16 10:18:23;;;;;;;2.55;2.10;;;;;;;29.16;39.35;99167.06;5003663;28;20641;-87
2021/09/16 10:20:53;;;;;;;2.50;2.30;;;;;;;29.00;39.35;99153.22;5019879;28;20234;-88
2021/09/16 10:23:23;;;;;;;2.55;2.10;;;;;;;29.12;39.71;99155.09;5019832;28;20707;-87
2021/09/16 10:25:55;;;;;;;2.92;2.38;;;;;;;29.39;40.02;99150.72;5035882;28;20225;-87
2021/09/16 10:28:36;;;;;;;3.63;2.60;;;;;;;29.54;39.58;99160.94;5019597;28;20237;-87
2021/09/16 10:31:19;;;;;;;3.40;2.72;;;;;;;29.99;38.61;99147.50;5019942;28;20622;-87
2021/09/16 10:33:49;;;;;;;3.22;2.10;;;;;;;30.35;37.73;99149.06;5003792;28;20588;-88
2021/09/16 10:36:19;;;;;;;2.95;2.20;;;;;;;30.77;37.88;99153.91;5019355;28;20697;-87
2021/09/16 10:38:51;;;;;;;2.47;2.28;;;;;;;30.67;37.19;99149.75;5018983;28;20222;-88
2021/09/16 10:41:26;;;;;;;2.90;2.60;;;;;;;30.40;38.16;99139.69;5019747;28;20238;-87
2021/09/16 10:43:57;;;;;;;2.90;2.60;;;;;;;31.08;36.99;99150.97;5019765;28;20222;-87
2021/09/16 10:46:40;;;;;;;3.65;2.35;;;;;;;30.83;37.38;99147.72;5036451;28;20309;-88
2021/09/16 10:49:20;;;;;;;2.53;2.40;;;;;;;31.08;36.81;99133.59;5035275;28;20241;-85
2021/09/16 10:51:57;;;;;;;4.22;2.50;;;;;;;31.00;37.37;99138.97;5035645;28;20317;-87
2021/09/16 10:54:34;;;;;;;2.72;2.15;;;;;;;31.11;37.36;99130.91;5035886;28;20617;-87
2021/09/16 10:57:19;;;;;;;3.33;2.80;;;;;;;30.47;37.48;99135.13;5019356;28;20226;-88
2021/09/16 10:59:48;;;;;;;3.17;2.70;;;;;;;30.49;37.96;99132.81;5035408;28;20234;-85
2021/09/16 11:02:24;;;;;;;2.97;2.40;;;;;;;30.02;38.59;99124.66;5036126;28;20231;-85
2021/09/16 11:04:55;;;;;;;2.50;2.30;;;;;;;30.41;38.32;99127.50;5019397;28;20233;-87
2021/09/16 11:07:39;;;;;;;3.70;2.53;;;;;;;30.18;38.71;99132.91;5020720;28;20245;-87
2021/09/16 11:10:19;;;;;;;2.92;2.45;;;;;;;30.30;38.67;99135.53;5034861;28;20226;-87
2021/09/16 11:12:55;;;;;;;3.30;2.70;;;;;;;30.57;38.67;99134.56;5036383;28;20233;-87
2021/09/16 11:15:26;;;;;;;3.25;2.58;;;;;;;30.45;38.26;99131.94;5034815;28;20256;-87
2021/09/16 11:18:14;;;;;;;3.38;2.83;;;;;;;30.28;38.61;99126.03;5019222;28;20709;-87
2021/09/16 11:20:54;;;;;;;3.08;2.60;;;;;;;30.41;38.83;99119.19;5019505;28;20257;-87
2021/09/16 11:23:34;;;;;;;3.25;2.95;;;;;;;30.38;38.78;99117.94;5035063;28;20532;-87
2021/09/16 11:26:04;;;;;;;3.22;2.60;;;;;;;30.81;38.19;99121.59;5002469;28;20222;-87
2021/09/16 11:28:34;;;;;;;3.90;2.80;;;;;;;31.11;37.86;99105.19;5002708;28;20218;-87
2021/09/16 11:31:06;;;;;;;3.75;2.78;;;;;;;30.74;37.78;99110.41;5003057;28;20234;-86
2021/09/16 11:33:35;;;;;;;5.45;3.00;;;;;;;31.06;37.18;99105.50;5002783;28;20314;-86
2021/09/16 11:36:05;;;;;;;4.80;3.00;;;;;;;31.66;36.64;99109.28;5018269;28;20341;-87
2021/09/16 11:38:35;;;;;;;3.15;2.63;;;;;;;32.02;35.75;99100.34;5018423;28;20311;-87
2021/09/16 11:41:06;;;;;;;3.00;2.80;;;;;;;32.18;35.50;99095.44;5034336;28;20237;-87
2021/09/16 11:43:36;;;;;;;2.92;2.60;;;;;;;31.90;35.69;99090.28;5034351;28;20240;-87
2021/09/16 11:46:13;;;;;;;3.42;2.55;;;;;;;31.67;36.83;99091.53;5034185;28;20226;-87
2021/09/16 11:48:40;;;;;;;3.25;2.60;;;;;;;31.42;37.30;99082.78;5017889;28;20272;-85
2021/09/16 11:51:07;;;;;;;3.92;2.80;;;;;;;31.82;35.75;99082.25;5034579;28;20296;-87
2021/09/16 11:53:35;;;;;;;4.47;3.17;;;;;;;31.65;35.07;99085.53;5017828;28;20226;-85